Time;durP1;ratioP1;P1;durP2;ratioP2;P2;SDS_P1;SDS_P2;PMS_P1;PMS_P2;Temp;Humidity;BMP_temperature;BMP_pressure;BME280_temperature;BME280_humidity;BME280_pressure;Samples;Min_cycle;Max_cycle;Signal;HPM_P1;HPM_P2
2021/06/12 00:02:06;;;;;;;12.97;9.47;;;;;;;-144.99;89.08;52211.66;5052177;28;20684;-60
2021/06/12 00:04:35;;;;;;;10.83;9.53;;;;;;;-144.99;89.50;52154.59;5052272;28;20205;-60
2021/06/12 00:07:04;;;;;;;14.10;9.03;;;;;;;-144.99;89.36;52183.13;5051987;28;20232;-60
2021/06/12 00:09:30;;;;;;;18.47;12.00;;;;;;;-144.99;89.56;52187.19;5052416;28;20233;-59
2021/06/12 00:11:56;;;;;;;14.10;9.17;;;;;;;-144.99;89.28;52170.91;5051954;28;20733;-66
2021/06/12 00:14:23;;;;;;;17.17;11.03;;;;;;;-144.99;89.17;52211.66;5050977;28;20221;-67
2021/06/12 00:16:53;;;;;;;14.17;11.37;;;;;;;-144.99;89.09;52185.16;5047000;28;20224;-66
2021/06/12 00:19:19;;;;;;;17.23;11.27;;;;;;;-144.99;89.27;52154.59;5043878;28;20226;-68
2021/06/12 00:21:51;;;;;;;19.77;12.00;;;;;;;-144.99;89.28;52191.28;5051306;28;20231;-66
2021/06/12 00:24:17;;;;;;;15.33;9.97;;;;;;;-144.99;89.36;52199.44;5051609;28;20217;-69
2021/06/12 00:26:49;;;;;;;18.63;12.40;;;;;;;-144.99;89.36;52162.75;5051633;28;20213;-69
2021/06/12 00:29:18;;;;;;;18.60;12.37;;;;;;;-144.99;89.55;52187.19;5052194;28;20303;-66
2021/06/12 00:31:47;;;;;;;15.23;10.87;;;;;;;-144.99;89.86;52199.44;5044301;28;20519;-66
2021/06/12 00:34:17;;;;;;;15.00;11.63;;;;;;;-144.99;89.95;52187.19;5045705;28;20399;-67
2021/06/12 00:36:43;;;;;;;14.30;12.03;;;;;;;-144.99;90.16;52183.13;5051130;28;20205;-72
2021/06/12 00:39:09;;;;;;;17.17;12.43;;;;;;;-144.99;90.21;52136.25;5051218;28;20245;-69
2021/06/12 00:41:35;;;;;;;15.13;12.20;;;;;;;-144.99;90.07;52199.44;5051937;28;20228;-63
2021/06/12 00:44:02;;;;;;;21.20;13.27;;;;;;;-144.99;90.14;52174.97;5049668;28;20201;-63
2021/06/12 00:46:36;;;;;;;15.57;12.27;;;;;;;-144.99;90.62;52174.97;5049037;28;20220;-61
2021/06/12 00:49:05;;;;;;;15.80;12.50;;;;;;;-144.99;90.68;52193.31;5045084;28;20220;-63
2021/06/12 00:51:33;;;;;;;16.23;12.93;;;;;;;-144.99;90.41;52187.19;5048897;28;20583;-63
2021/06/12 00:54:02;;;;;;;19.63;14.60;;;;;;;-144.99;90.76;52183.13;5048936;28;20226;-61
2021/06/12 00:56:28;;;;;;;16.87;13.10;;;;;;;-144.99;90.72;52195.34;5050777;28;20210;-62
2021/06/12 00:58:57;;;;;;;19.60;15.83;;;;;;;-144.99;90.66;52166.81;5050751;28;20237;-61
2021/06/12 01:01:23;;;;;;;17.53;12.93;;;;;;;-144.99;91.22;52203.50;5049286;28;20206;-60
2021/06/12 01:03:52;;;;;;;18.07;14.33;;;;;;;-144.99;90.78;52183.13;5050364;28;20201;-62
2021/06/12 01:06:20;;;;;;;17.73;12.70;;;;;;;-144.99;91.23;52195.34;5051080;28;20224;-61
2021/06/12 01:08:48;;;;;;;13.87;11.60;;;;;;;-144.99;91.28;52203.50;5048494;28;20389;-61
2021/06/12 01:11:18;;;;;;;16.03;14.20;;;;;;;-144.99;91.53;52177.00;5046599;28;20262;-62
2021/06/12 01:13:55;;;;;;;18.03;12.23;;;;;;;-144.99;91.82;52164.78;5047322;28;20578;-62
2021/06/12 01:16:28;;;;;;;18.40;11.90;;;;;;;-144.99;91.51;52211.66;5049481;28;20210;-62
2021/06/12 01:18:59;;;;;;;14.87;11.60;;;;;;;-144.99;91.57;52183.13;5041715;28;20295;-63
2021/06/12 01:21:31;;;;;;;18.60;11.87;;;;;;;-144.99;91.37;52158.66;5042951;28;20209;-62
2021/06/12 01:24:19;;;;;;;17.83;12.20;;;;;;;-144.99;91.43;52185.16;5050235;28;20213;-62
2021/06/12 01:27:19;;;;;;;19.57;12.53;;;;;;;-144.99;90.86;52193.31;5048841;28;20198;-62
2021/06/12 01:30:20;;;;;;;15.40;12.33;;;;;;;-144.99;90.68;52158.66;5048147;28;20599;-66
2021/06/12 01:32:52;;;;;;;15.90;13.80;;;;;;;-144.99;90.54;52174.97;5051345;28;20213;-64
2021/06/12 01:35:31;;;;;;;16.40;12.60;;;;;;;-144.99;90.58;52193.31;5050141;28;20221;-67
2021/06/12 01:37:58;;;;;;;15.67;12.10;;;;;;;-144.99;90.65;52195.34;5048710;28;20233;-66
2021/06/12 01:40:32;;;;;;;17.87;12.03;;;;;;;-144.99;90.61;52207.59;5050869;28;20209;-65
2021/06/12 01:43:01;;;;;;;16.40;11.20;;;;;;;-144.99;90.67;52140.31;5048830;28;20216;-68
2021/06/12 01:45:32;;;;;;;14.90;10.50;;;;;;;-144.99;90.67;52236.13;5047085;28;20233;-67
2021/06/12 01:47:59;;;;;;;11.23;9.40;;;;;;;-144.99;90.32;52174.97;5044720;28;20253;-60
2021/06/12 01:50:31;;;;;;;24.17;10.40;;;;;;;-144.99;90.71;52201.47;5049279;28;20293;-62
2021/06/12 01:52:58;;;;;;;11.83;10.47;;;;;;;-144.99;90.72;52172.94;5045394;28;20232;-60
2021/06/12 01:55:31;;;;;;;11.07;8.27;;;;;;;-144.99;90.53;52195.34;5049292;28;20257;-59
2021/06/12 01:58:01;;;;;;;17.27;9.87;;;;;;;-144.99;90.46;52166.81;5049298;28;20251;-61
2021/06/12 02:00:29;;;;;;;14.53;10.30;;;;;;;-144.99;90.16;52211.66;5049890;28;20221;-60
2021/06/12 02:02:59;;;;;;;14.67;10.47;;;;;;;-144.99;90.24;52174.97;5049211;28;20266;-62
2021/06/12 02:05:26;;;;;;;11.37;9.67;;;;;;;-144.99;91.21;52215.75;5049534;28;20210;-61
2021/06/12 02:08:02;;;;;;;13.47;8.83;;;;;;;-144.99;92.63;52191.28;5047714;28;20229;-60
2021/06/12 02:10:31;;;;;;;14.00;8.70;;;;;;;-144.99;93.80;52211.66;5047402;28;20205;-59
2021/06/12 02:13:00;;;;;;;10.63;8.57;;;;;;;-144.99;94.95;52207.59;5046497;28;20209;-59
2021/06/12 02:15:31;;;;;;;11.60;8.73;;;;;;;-144.99;94.87;52187.19;5048640;28;20221;-58
2021/06/12 02:18:06;;;;;;;16.80;10.30;;;;;;;-144.99;95.27;52213.69;5040059;28;20221;-59
2021/06/12 02:20:40;;;;;;;14.23;11.53;;;;;;;-144.99;96.14;52170.91;5045350;28;20231;-58
2021/06/12 02:23:08;;;;;;;13.17;10.27;;;;;;;-144.99;96.31;52201.47;5049325;28;20687;-63
2021/06/12 02:25:37;;;;;;;14.73;11.30;;;;;;;-144.99;96.52;52203.50;5049419;28;20210;-64
2021/06/12 02:28:06;;;;;;;16.20;11.47;;;;;;;-144.99;96.84;52230.00;5049236;28;20226;-64
2021/06/12 02:30:42;;;;;;;17.77;11.53;;;;;;;-144.99;97.03;52187.19;5049112;28;20212;-63
2021/06/12 02:33:19;;;;;;;14.30;11.43;;;;;;;-144.99;97.65;52191.28;5049695;28;20307;-64
2021/06/12 02:35:48;;;;;;;22.63;13.47;;;;;;;-144.99;97.92;52221.84;5049573;28;20279;-63
2021/06/12 02:38:17;;;;;;;14.83;12.57;;;;;;;-144.99;97.59;52199.44;5048021;28;20225;-63
2021/06/12 02:40:43;;;;;;;15.83;13.10;;;;;;;-144.99;97.76;52191.28;5043733;28;20217;-64
2021/06/12 02:43:15;;;;;;;20.00;13.67;;;;;;;-144.99;97.78;52183.13;5042425;28;20254;-64
2021/06/12 02:45:44;;;;;;;17.40;13.23;;;;;;;-144.99;98.26;52187.19;5045371;28;20220;-64
2021/06/12 02:48:15;;;;;;;16.33;12.77;;;;;;;-144.99;98.53;52211.66;5048272;28;20225;-63
2021/06/12 02:50:46;;;;;;;18.37;14.10;;;;;;;-144.99;98.93;52195.34;5048814;28;20221;-62
2021/06/12 02:53:17;;;;;;;20.33;15.00;;;;;;;-144.99;99.46;52183.13;5048634;28;20534;-63
2021/06/12 02:55:47;;;;;;;22.17;16.33;;;;;;;-144.99;99.98;52211.66;5048074;28;20233;-63
2021/06/12 02:58:21;;;;;;;19.93;15.17;;;;;;;-144.99;100.00;52172.94;5046301;28;20710;-60
2021/06/12 03:00:50;;;;;;;22.13;15.87;;;;;;;-144.99;100.00;52181.09;5036625;28;20588;-60
2021/06/12 03:03:19;;;;;;;18.67;14.00;;;;;;;-144.99;100.00;52221.84;5049103;28;20215;-61
2021/06/12 03:05:49;;;;;;;21.00;14.03;;;;;;;-144.99;100.00;52195.34;5049511;28;20240;-60
2021/06/12 03:08:19;;;;;;;19.07;14.30;;;;;;;-144.99;100.00;52174.97;5050498;28;20237;-66
2021/06/12 03:10:47;;;;;;;21.13;16.03;;;;;;;-144.99;100.00;52207.59;5050667;28;20205;-65
2021/06/12 03:13:22;;;;;;;25.33;15.67;;;;;;;-144.99;100.00;52207.59;5051711;28;20201;-67
2021/06/12 03:15:51;;;;;;;17.00;11.87;;;;;;;-144.99;100.00;52185.16;5040027;28;20223;-67
2021/06/12 03:18:18;;;;;;;21.00;17.37;;;;;;;-144.99;100.00;52236.13;5043030;28;20221;-67
2021/06/12 03:20:50;;;;;;;16.00;12.43;;;;;;;-144.99;100.00;52203.50;5050374;28;20209;-67
2021/06/12 03:23:17;;;;;;;16.37;12.10;;;;;;;-144.99;100.00;52172.94;5051874;28;20220;-66
2021/06/12 03:25:46;;;;;;;14.50;10.73;;;;;;;-144.99;100.00;52211.66;5051134;28;20209;-66
2021/06/12 03:28:18;;;;;;;15.07;11.67;;;;;;;-144.99;100.00;52215.75;5050017;28;20225;-66
2021/06/12 03:30:45;;;;;;;15.77;13.33;;;;;;;-144.99;99.79;52199.44;5052110;28;20578;-65
2021/06/12 03:33:16;;;;;;;13.87;9.90;;;;;;;-144.99;99.55;52191.28;5052292;28;20217;-66
2021/06/12 03:35:43;;;;;;;13.77;10.40;;;;;;;-144.99;99.71;52191.28;5051720;28;20233;-65
2021/06/12 03:38:09;;;;;;;11.50;9.43;;;;;;;-144.99;99.48;52246.31;5051482;28;20236;-65
2021/06/12 03:40:42;;;;;;;13.07;8.63;;;;;;;-144.99;99.50;52189.25;5050953;28;20740;-65
2021/06/12 03:43:11;;;;;;;12.77;8.70;;;;;;;-144.99;99.85;52236.13;5046045;28;20645;-66
2021/06/12 03:45:40;;;;;;;13.20;9.67;;;;;;;-144.99;99.92;52209.63;5046396;28;20546;-66
2021/06/12 03:48:08;;;;;;;14.07;8.40;;;;;;;-144.99;99.97;52215.75;5046407;28;20733;-65
2021/06/12 03:50:39;;;;;;;13.07;8.73;;;;;;;-144.99;99.99;52183.13;5052853;28;20213;-65
2021/06/12 03:53:09;;;;;;;14.63;8.50;;;;;;;-144.99;99.65;52219.81;5052133;28;20580;-65
2021/06/12 03:55:36;;;;;;;13.07;8.90;;;;;;;-144.99;99.13;52232.03;5051827;28;20514;-61
2021/06/12 03:58:05;;;;;;;16.03;8.90;;;;;;;-144.99;99.34;52170.91;5049102;28;20753;-61
2021/06/12 04:00:35;;;;;;;10.97;7.47;;;;;;;-144.99;99.15;52174.97;5051931;28;20209;-60
2021/06/12 04:03:06;;;;;;;8.40;7.23;;;;;;;-144.99;99.01;52219.81;5051885;28;20209;-62
2021/06/12 04:05:35;;;;;;;13.87;10.33;;;;;;;-144.99;98.98;52219.81;5038650;28;20213;-68
2021/06/12 04:08:03;;;;;;;10.63;8.93;;;;;;;-144.99;98.89;52244.28;5050876;28;20225;-65
2021/06/12 04:10:32;;;;;;;14.00;12.27;;;;;;;-144.99;98.62;52195.34;5051571;28;20239;-66
2021/06/12 04:12:58;;;;;;;12.93;9.70;;;;;;;-144.99;98.26;52195.34;5048443;28;20202;-69
2021/06/12 04:15:24;;;;;;;13.73;10.10;;;;;;;-144.99;98.19;52154.59;5044209;28;20218;-70
2021/06/12 04:18:00;;;;;;;15.73;11.27;;;;;;;-144.99;97.76;52195.34;5040361;28;20645;-63
2021/06/12 04:20:26;;;;;;;14.47;9.93;;;;;;;-144.99;97.85;52240.19;5042228;28;20674;-63
2021/06/12 04:22:55;;;;;;;10.73;9.33;;;;;;;-144.99;97.81;52170.91;5032498;28;20698;-64
2021/06/12 04:25:22;;;;;;;13.13;8.13;;;;;;;-144.99;98.02;52209.63;5052163;28;20797;-64
2021/06/12 04:27:51;;;;;;;15.50;10.30;;;;;;;-144.99;97.69;52187.19;5049427;28;20237;-64
2021/06/12 04:30:20;;;;;;;14.00;9.83;;;;;;;-144.99;97.92;52187.19;5046758;28;20262;-63
2021/06/12 04:32:46;;;;;;;12.57;9.07;;;;;;;-144.99;97.89;52166.81;5051914;28;20573;-63
2021/06/12 04:35:16;;;;;;;17.63;11.20;;;;;;;-144.99;97.82;52189.25;5051674;28;20256;-64
2021/06/12 04:37:45;;;;;;;17.10;10.13;;;;;;;-144.99;97.78;52174.97;5037709;28;20240;-64
2021/06/12 04:40:15;;;;;;;14.63;11.27;;;;;;;-144.99;97.82;52219.81;5050506;28;20545;-63
2021/06/12 04:42:46;;;;;;;16.37;10.10;;;;;;;-144.99;97.54;52191.28;5051070;28;20602;-63
2021/06/12 04:45:15;;;;;;;20.17;11.50;;;;;;;-144.99;97.68;52199.44;5050958;28;20260;-63
2021/06/12 04:47:44;;;;;;;16.63;11.07;;;;;;;-144.99;97.66;52174.97;5049760;28;20264;-59
2021/06/12 04:50:14;;;;;;;15.03;11.13;;;;;;;-144.99;97.58;52195.34;5050556;28;20220;-59
2021/06/12 04:52:46;;;;;;;20.83;14.33;;;;;;;-144.99;97.65;52193.31;5050532;28;20324;-59
2021/06/12 04:55:15;;;;;;;25.20;14.70;;;;;;;-144.99;97.99;52201.47;5049565;28;20251;-58
2021/06/12 04:57:42;;;;;;;17.77;12.30;;;;;;;-144.99;98.05;52187.19;5046632;28;20722;-58
2021/06/12 05:00:11;;;;;;;14.80;10.67;;;;;;;-144.99;98.00;52197.41;5045366;28;20228;-60
2021/06/12 05:02:38;;;;;;;16.17;12.13;;;;;;;-144.99;98.18;52219.81;5049665;28;20210;-59
2021/06/12 05:05:09;;;;;;;20.97;12.27;;;;;;;-144.99;97.98;52203.50;5050695;28;20236;-60
2021/06/12 05:07:35;;;;;;;21.17;12.63;;;;;;;-144.99;97.65;52211.66;5049944;28;20679;-60
2021/06/12 05:10:04;;;;;;;17.87;13.33;;;;;;;-144.99;97.67;52199.44;5050253;28;20533;-60
2021/06/12 05:12:36;;;;;;;19.67;15.00;;;;;;;-144.99;97.28;52174.97;5044499;28;20661;-64
2021/06/12 05:15:09;;;;;;;20.73;15.70;;;;;;;-144.99;97.07;52223.88;5047389;28;20260;-63
2021/06/12 05:17:40;;;;;;;20.97;13.13;;;;;;;-144.99;97.48;52203.50;5039275;28;20232;-64
2021/06/12 05:20:10;;;;;;;16.87;12.07;;;;;;;-144.99;97.53;52185.16;5039398;28;20194;-60
2021/06/12 05:22:37;;;;;;;20.93;14.17;;;;;;;-144.99;98.02;52187.19;5050200;28;20205;-62
2021/06/12 05:25:07;;;;;;;21.03;15.40;;;;;;;-144.99;97.92;52162.75;5050449;28;20217;-61
2021/06/12 05:27:33;;;;;;;20.87;16.17;;;;;;;-144.99;97.90;52217.78;5049097;28;20234;-61
2021/06/12 05:29:59;;;;;;;29.67;17.43;;;;;;;-144.99;98.33;52211.66;5049456;28;20201;-60
2021/06/12 05:32:29;;;;;;;20.43;13.33;;;;;;;-144.99;98.34;52219.81;5045558;28;20729;-60
2021/06/12 05:34:59;;;;;;;25.50;15.47;;;;;;;-144.99;98.46;52191.28;5049654;28;20233;-60
2021/06/12 05:37:26;;;;;;;17.63;13.87;;;;;;;-144.99;98.47;52211.66;5048281;28;20221;-60
2021/06/12 05:39:52;;;;;;;22.13;15.83;;;;;;;-144.99;98.44;52227.97;5044701;28;20213;-61
2021/06/12 05:42:18;;;;;;;24.53;14.60;;;;;;;-144.99;98.55;52191.28;5050138;28;20336;-60
2021/06/12 05:44:46;;;;;;;17.50;11.77;;;;;;;-144.99;98.40;52199.44;5049299;28;20197;-60
2021/06/12 05:47:13;;;;;;;19.00;12.43;;;;;;;-144.99;98.12;52203.50;5043675;28;20209;-59
2021/06/12 05:49:43;;;;;;;21.33;14.53;;;;;;;-144.99;97.95;52209.63;5049647;28;20212;-59
2021/06/12 05:52:09;;;;;;;25.73;16.33;;;;;;;-144.99;97.62;52191.28;5049263;28;20217;-59
2021/06/12 05:54:35;;;;;;;19.50;14.53;;;;;;;-144.99;97.69;52187.19;5050828;28;20245;-60
2021/06/12 05:57:01;;;;;;;19.00;15.40;;;;;;;-144.99;97.53;52166.81;5049640;28;20209;-60
2021/06/12 05:59:27;;;;;;;19.03;14.20;;;;;;;-144.99;97.71;52221.84;5048122;28;20235;-62
2021/06/12 06:01:55;;;;;;;22.70;13.43;;;;;;;-144.99;97.46;52183.13;5047988;28;20221;-61
2021/06/12 06:04:21;;;;;;;17.87;14.10;;;;;;;-144.99;97.67;52211.66;5049562;28;20275;-62
2021/06/12 06:06:53;;;;;;;23.37;18.13;;;;;;;-144.99;97.46;52203.50;5049010;28;20678;-60
2021/06/12 06:09:22;;;;;;;21.87;17.33;;;;;;;-144.99;97.27;52179.06;5049783;28;20248;-62
2021/06/12 06:11:48;;;;;;;21.73;13.60;;;;;;;-144.99;97.25;52195.34;5050104;28;20209;-62
2021/06/12 06:14:20;;;;;;;20.00;16.87;;;;;;;-144.99;97.36;52183.13;5049706;28;20217;-63
2021/06/12 06:16:46;;;;;;;23.10;16.60;;;;;;;-144.99;97.16;52201.47;5048257;28;20205;-60
2021/06/12 06:19:13;;;;;;;19.13;14.10;;;;;;;-144.99;97.01;52174.97;5046974;28;20594;-62
2021/06/12 06:21:45;;;;;;;19.30;14.10;;;;;;;-144.99;96.68;52154.59;5049178;28;20207;-60
2021/06/12 06:24:15;;;;;;;21.03;15.30;;;;;;;-144.99;96.37;52221.84;5049452;28;20573;-60
2021/06/12 06:26:41;;;;;;;19.97;15.33;;;;;;;-144.99;95.94;52179.06;5049514;28;20232;-61
2021/06/12 06:29:10;;;;;;;20.00;14.60;;;;;;;-144.99;95.93;52179.06;5049370;28;20702;-60
2021/06/12 06:31:44;;;;;;;23.13;14.13;;;;;;;-144.99;96.07;52170.91;5047240;28;20197;-60
2021/06/12 06:34:16;;;;;;;16.20;13.70;;;;;;;-144.99;95.77;52195.34;5047655;28;20204;-60
2021/06/12 06:36:50;;;;;;;21.43;13.10;;;;;;;-144.99;95.34;52221.84;5050221;28;20212;-59
2021/06/12 06:39:17;;;;;;;22.47;17.87;;;;;;;-144.99;95.19;52193.31;5048949;28;20225;-61
2021/06/12 06:41:43;;;;;;;16.70;13.43;;;;;;;-144.99;94.79;52215.75;5049639;28;20300;-61
2021/06/12 06:44:12;;;;;;;17.43;12.93;;;;;;;-144.99;94.09;52174.97;5048810;28;20213;-60
2021/06/12 06:46:39;;;;;;;24.20;13.00;;;;;;;-144.99;93.97;52203.50;5037924;28;20212;-60
2021/06/12 06:49:07;;;;;;;15.70;11.00;;;;;;;-144.99;93.94;52166.81;5043870;28;20245;-64
2021/06/12 06:51:34;;;;;;;14.63;11.17;;;;;;;-144.99;93.50;52219.81;5048777;28;20228;-65
2021/06/12 06:54:00;;;;;;;17.23;12.23;;;;;;;-144.99;93.48;52183.13;5048948;28;20219;-63
2021/06/12 06:56:30;;;;;;;13.87;11.37;;;;;;;-144.99;93.09;52227.97;5048863;28;20238;-63
2021/06/12 06:59:02;;;;;;;17.57;10.63;;;;;;;-144.99;92.80;52195.34;5048600;28;20227;-62
2021/06/12 07:01:29;;;;;;;12.80;9.67;;;;;;;-144.99;92.08;52183.13;5048912;28;20603;-64
2021/06/12 07:03:58;;;;;;;10.00;6.70;;;;;;;-144.99;91.01;52142.38;5048837;28;20221;-63
2021/06/12 07:06:30;;;;;;;10.43;6.97;;;;;;;-144.99;91.00;52154.59;5047007;28;20782;-60
2021/06/12 07:08:56;;;;;;;10.37;6.17;;;;;;;-144.99;89.67;52158.66;5043284;28;20690;-62
2021/06/12 07:11:25;;;;;;;10.63;6.87;;;;;;;-144.99;88.37;52170.91;5048876;28;20213;-62
2021/06/12 07:13:52;;;;;;;19.50;8.67;;;;;;;-144.99;88.71;52158.66;5049231;28;20663;-61
2021/06/12 07:16:19;;;;;;;14.10;8.17;;;;;;;-144.99;88.55;52183.13;5048419;28;20222;-61
2021/06/12 07:18:48;;;;;;;10.97;6.90;;;;;;;-144.99;88.55;52223.88;5043276;28;20229;-62
2021/06/12 07:21:14;;;;;;;13.03;7.90;;;;;;;-144.99;88.28;52158.66;5044380;28;20244;-61
2021/06/12 07:23:43;;;;;;;10.97;6.30;;;;;;;-144.99;88.53;52187.19;5047650;28;20236;-62
2021/06/12 07:26:12;;;;;;;11.10;7.07;;;;;;;-144.99;88.14;52195.34;5042809;28;20221;-62
2021/06/12 07:28:44;;;;;;;11.77;6.10;;;;;;;-144.99;87.95;52199.44;5046007;28;20231;-61
2021/06/12 07:31:11;;;;;;;11.20;6.13;;;;;;;-144.99;88.02;52211.66;5048067;28;20210;-68
2021/06/12 07:33:43;;;;;;;9.80;7.40;;;;;;;-144.99;87.88;52174.97;5047127;28;20736;-64
2021/06/12 07:36:09;;;;;;;15.70;7.53;;;;;;;-144.99;88.12;52203.50;5048211;28;20253;-65
2021/06/12 07:38:37;;;;;;;10.60;7.27;;;;;;;-144.99;87.84;52230.00;5047816;28;20536;-64
2021/06/12 07:41:06;;;;;;;11.17;8.50;;;;;;;-144.99;87.33;52201.47;5047748;28;20224;-65
2021/06/12 07:43:35;;;;;;;12.07;7.47;;;;;;;-144.99;86.91;52162.75;5045854;28;20263;-65
2021/06/12 07:46:04;;;;;;;11.07;7.33;;;;;;;-144.99;86.56;52164.78;5037578;28;20343;-65
2021/06/12 07:48:32;;;;;;;11.80;8.40;;;;;;;-144.99;86.04;52183.13;5045749;28;20226;-68
2021/06/12 07:50:58;;;;;;;14.47;8.97;;;;;;;-144.99;86.09;52170.91;5047826;28;20211;-65
2021/06/12 07:53:26;;;;;;;10.87;7.67;;;;;;;-144.99;85.67;52211.66;5048038;28;20225;-64
2021/06/12 07:55:53;;;;;;;16.80;10.03;;;;;;;-144.99;85.68;52191.28;5050610;28;20244;-66
2021/06/12 07:58:24;;;;;;;14.33;8.13;;;;;;;-144.99;84.88;52138.28;5050902;28;20229;-66
2021/06/12 08:00:51;;;;;;;22.10;11.03;;;;;;;-144.99;83.96;52164.78;5043944;28;20728;-65
2021/06/12 08:03:19;;;;;;;13.17;10.50;;;;;;;-144.99;83.23;52166.81;5051918;28;20210;-68
2021/06/12 08:05:56;;;;;;;10.70;7.67;;;;;;;-144.99;81.95;52142.38;5051788;28;20218;-67
2021/06/12 08:08:27;;;;;;;11.23;7.83;;;;;;;-144.99;80.89;52150.53;5051306;28;20236;-66
2021/06/12 08:10:56;;;;;;;9.40;6.80;;;;;;;-144.99;78.99;52158.66;5051809;28;20273;-65
2021/06/12 08:13:25;;;;;;;12.50;7.20;;;;;;;-144.99;78.43;52164.78;5050005;28;20203;-65
2021/06/12 08:15:54;;;;;;;8.33;5.13;;;;;;;-144.99;78.37;52164.78;5043311;28;20708;-68
2021/06/12 08:18:20;;;;;;;11.40;7.17;;;;;;;-144.99;78.01;52170.91;5051024;28;20237;-65
2021/06/12 08:20:47;;;;;;;12.63;5.87;;;;;;;-144.99;76.36;52130.13;5049483;28;20234;-66
2021/06/12 08:23:15;;;;;;;15.23;6.87;;;;;;;-144.99;76.13;52162.75;5050898;28;20677;-64
2021/06/12 08:25:44;;;;;;;9.53;6.57;;;;;;;-144.99;75.78;52154.59;5051794;28;20657;-65
2021/06/12 08:28:13;;;;;;;9.87;5.60;;;;;;;-144.99;75.56;52183.13;5051036;28;20231;-65
2021/06/12 08:30:39;;;;;;;7.80;4.00;;;;;;;-144.99;74.92;52166.81;5050354;28;20221;-66
2021/06/12 08:33:06;;;;;;;7.67;4.60;;;;;;;-144.99;74.13;52199.44;5050139;28;20488;-66
2021/06/12 08:35:38;;;;;;;34.80;15.87;;;;;;;-144.99;74.71;52179.06;5050205;28;20322;-64
2021/06/12 08:38:04;;;;;;;15.13;8.80;;;;;;;-144.99;74.98;52168.84;5051169;28;20235;-67
2021/06/12 08:40:41;;;;;;;10.87;5.27;;;;;;;-144.99;74.92;52170.91;5051472;28;20273;-68
2021/06/12 08:43:10;;;;;;;9.07;4.40;;;;;;;-144.99;74.64;52174.97;5050225;28;20584;-66
2021/06/12 08:45:41;;;;;;;11.53;5.70;;;;;;;-144.99;73.81;52142.38;5050415;28;20208;-70
2021/06/12 08:48:08;;;;;;;9.83;5.37;;;;;;;-144.99;73.81;52183.13;5050729;28;20262;-65
2021/06/12 08:50:40;;;;;;;6.90;4.80;;;;;;;-144.99;73.02;52164.78;5048639;28;20653;-66
2021/06/12 08:53:09;;;;;;;10.17;4.37;;;;;;;-144.99;72.68;52162.75;5051193;28;20755;-67
2021/06/12 08:55:37;;;;;;;6.50;3.47;;;;;;;-144.99;70.44;52162.75;5053304;28;20347;-66
2021/06/12 08:58:03;;;;;;;11.73;3.93;;;;;;;-144.99;70.47;52142.38;5051655;28;20236;-67
2021/06/12 09:00:32;;;;;;;5.93;4.23;;;;;;;-144.99;70.10;52136.25;5049381;28;20208;-66
2021/06/12 09:03:09;;;;;;;9.90;5.03;;;;;;;-144.99;70.08;52185.16;5059397;28;20555;-67
2021/06/12 09:05:43;;;;;;;5.10;3.60;;;;;;;-144.99;68.61;52174.97;5058570;28;20222;-65
2021/06/12 09:08:13;;;;;;;11.17;5.10;;;;;;;-144.99;68.12;52152.56;5062832;28;20326;-66
2021/06/12 09:10:56;;;;;;;8.23;3.17;;;;;;;-144.99;66.30;52130.13;5058149;28;20254;-67
2021/06/12 09:13:53;;;;;;;11.97;5.03;;;;;;;-144.99;64.47;52162.75;5058534;28;20678;-68
2021/06/12 09:16:25;;;;;;;2.63;1.87;;;;;;;-144.99;62.46;52146.44;5012663;28;20236;-68
2021/06/12 09:18:52;;;;;;;5.73;2.17;;;;;;;-144.99;61.58;52142.38;5042708;28;20313;-67
2021/06/12 09:21:27;;;;;;;6.57;2.20;;;;;;;-144.99;61.76;52158.66;5047354;28;20239;-66
2021/06/12 09:23:58;;;;;;;3.27;1.53;;;;;;;-144.99;60.83;52146.44;5042786;28;20678;-70
2021/06/12 09:26:49;;;;;;;6.13;2.20;;;;;;;-144.99;60.52;52130.13;5072503;22;20228;-66
2021/06/12 09:29:20;;;;;;;8.23;2.03;;;;;;;-144.99;61.46;52187.19;5062326;28;20647;-64
2021/06/12 09:31:51;;;;;;;5.67;2.47;;;;;;;-144.99;62.35;52170.91;5048650;28;20247;-65
2021/06/12 09:34:22;;;;;;;4.67;2.03;;;;;;;-144.99;63.39;52121.97;5045270;28;20204;-65
2021/06/12 09:36:51;;;;;;;12.47;2.60;;;;;;;-144.99;63.83;52211.66;5047905;28;20636;-65
2021/06/12 09:39:21;;;;;;;3.63;2.67;;;;;;;-144.99;62.60;52146.44;5050303;28;20232;-64
2021/06/12 09:41:51;;;;;;;4.63;1.70;;;;;;;-144.99;62.47;52195.34;5050945;28;20295;-65
2021/06/12 09:44:35;;;;;;;6.83;1.87;;;;;;;-144.99;62.83;52154.59;5050066;28;20209;-66
2021/06/12 09:47:03;;;;;;;4.43;2.23;;;;;;;-144.99;63.12;52168.84;5044072;28;20267;-65
2021/06/12 09:49:35;;;;;;;9.70;2.07;;;;;;;-144.99;63.06;52160.72;5049261;28;20235;-64
2021/06/12 09:52:10;;;;;;;5.10;1.77;;;;;;;-144.99;60.17;52152.56;5050204;28;20301;-65
2021/06/12 09:54:38;;;;;;;7.70;2.20;;;;;;;-144.99;60.57;52138.28;5049749;28;20212;-64
2021/06/12 09:57:24;;;;;;;6.00;2.50;;;;;;;-144.99;60.23;52199.44;5050208;28;20771;-64
2021/06/12 09:59:56;;;;;;;6.17;2.13;;;;;;;-144.99;59.88;52138.28;5050544;28;20298;-65
2021/06/12 10:02:41;;;;;;;4.80;1.43;;;;;;;-144.99;59.90;52158.66;5050139;28;20208;-64
2021/06/12 10:05:09;;;;;;;4.80;1.40;;;;;;;-144.99;59.37;52134.22;5049313;28;20247;-65
2021/06/12 10:07:35;;;;;;;6.00;1.90;;;;;;;-144.99;59.70;52179.06;5048722;28;20236;-66
2021/06/12 10:10:04;;;;;;;5.40;1.20;;;;;;;-144.99;58.16;52113.84;5049255;28;20290;-65
2021/06/12 10:12:33;;;;;;;7.60;1.50;;;;;;;-144.99;57.66;52183.13;5050158;28;20209;-65
2021/06/12 10:15:06;;;;;;;6.03;3.43;;;;;;;-144.99;56.45;52142.38;5049771;28;20229;-66
2021/06/12 10:17:43;;;;;;;7.30;1.60;;;;;;;-144.99;53.91;52142.38;5048466;28;20229;-65
2021/06/12 10:20:12;;;;;;;11.27;3.03;;;;;;;-144.99;53.65;52126.06;5047778;28;20582;-65
2021/06/12 10:22:45;;;;;;;5.27;2.47;;;;;;;-144.99;54.32;52162.75;5049998;28;20208;-66
2021/06/12 10:25:14;;;;;;;8.97;1.73;;;;;;;-144.99;54.16;52166.81;5048238;28;20662;-64
2021/06/12 10:27:42;;;;;;;6.67;1.60;;;;;;;-144.99;53.37;52117.91;5049405;28;20229;-66
2021/06/12 10:30:11;;;;;;;4.90;1.90;;;;;;;-144.99;53.37;52162.75;5036745;28;20209;-66
2021/06/12 10:32:45;;;;;;;6.10;1.40;;;;;;;-144.99;54.36;52160.72;5049716;28;20217;-65
2021/06/12 10:35:15;;;;;;;4.90;1.70;;;;;;;-144.99;55.52;52119.94;5050088;28;20291;-67
2021/06/12 10:38:05;;;;;;;6.63;2.27;;;;;;;-144.99;54.51;52164.78;5049637;28;20600;-64
2021/06/12 10:40:43;;;;;;;4.47;1.40;;;;;;;-144.99;53.82;52195.34;5049449;28;20248;-65
2021/06/12 10:43:22;;;;;;;8.00;1.57;;;;;;;-144.99;53.85;52146.44;5046069;28;20236;-65
2021/06/12 10:46:09;;;;;;;3.83;1.40;;;;;;;-144.99;54.74;52113.84;5044593;28;20210;-65
2021/06/12 10:48:46;;;;;;;5.87;1.37;;;;;;;-144.99;54.12;52121.97;5048685;28;20232;-64
2021/06/12 10:51:13;;;;;;;6.30;2.93;;;;;;;-144.99;54.14;52077.16;5038281;28;20213;-65
2021/06/12 10:53:48;;;;;;;3.93;1.73;;;;;;;-144.99;53.73;52097.53;5046558;28;20267;-65
2021/06/12 10:56:35;;;;;;;5.47;1.93;;;;;;;-144.99;55.31;52162.75;5044530;28;20485;-64
2021/06/12 10:59:04;;;;;;;6.57;1.87;;;;;;;-144.99;54.50;52077.16;5044242;28;20228;-65
2021/06/12 11:01:33;;;;;;;8.57;1.67;;;;;;;-144.99;53.49;52134.22;5048375;28;20616;-64
2021/06/12 11:04:07;;;;;;;9.37;2.03;;;;;;;-144.99;54.04;52140.31;5049085;28;20221;-66
2021/06/12 11:06:48;;;;;;;2.50;1.37;;;;;;;-144.99;54.43;52121.97;5049164;28;20593;-64
2021/06/12 11:09:38;;;;;;;4.97;2.10;;;;;;;-144.99;53.93;52062.88;5049342;28;20268;-64
2021/06/12 11:12:26;;;;;;;9.10;3.10;;;;;;;-144.99;53.09;52105.69;5048291;28;20604;-64
2021/06/12 11:14:59;;;;;;;9.47;3.07;;;;;;;-144.99;52.81;52132.19;5049092;28;20588;-64
2021/06/12 11:17:30;;;;;;;9.53;4.00;;;;;;;-144.99;52.70;52126.06;5041092;28;20463;-65
2021/06/12 11:20:27;;;;;;;4.60;2.67;;;;;;;-144.99;53.11;52101.59;5049326;28;20701;-66
2021/06/12 11:22:54;;;;;;;13.13;2.63;;;;;;;-144.99;53.46;52089.38;5049191;28;20237;-65